Terminal Aerodrome Forecast
Issued by NWS

Home | Current Version | Previous Version | Text Only | Print | Product List | Glossary On
Versions: 1 2 3 4 5 6 7 8 9 10 11 12 13 14 15 16 17 18
000
FTUS46 KLOX 281725
TAFVNY
TAF
KVNY 281725Z 2818/2918 15006KT P6SM BKN016
     FM281830 12006KT P6SM SCT015 SCT150
     FM282000 14010KT P6SM SCT150
     FM290300 14007KT 6SM HZ SKC
     FM290900 VRB03KT 6SM BR OVC010=

USA.gov is the U.S. government's official web portal to all federal, state and local government web resources and services.